sensor_id;sensor_type;location;lat;lon;timestamp;P1;durP1;ratioP1;P2;durP2;ratioP2
42384;SDS011;28042;43.986;22.860;2023-03-02T00:00:34;88.10;;;46.17;;
42384;SDS011;28042;43.986;22.860;2023-03-02T00:03:00;94.18;;;47.17;;
42384;SDS011;28042;43.986;22.860;2023-03-02T00:05:28;93.20;;;45.28;;
42384;SDS011;28042;43.986;22.860;2023-03-02T00:07:56;87.47;;;44.47;;
42384;SDS011;28042;43.986;22.860;2023-03-02T00:12:49;83.68;;;42.03;;
42384;SDS011;28042;43.986;22.860;2023-03-02T00:15:15;84.22;;;43.03;;
42384;SDS011;28042;43.986;22.860;2023-03-02T00:17:40;81.95;;;42.80;;
42384;SDS011;28042;43.986;22.860;2023-03-02T00:20:06;80.88;;;40.83;;
42384;SDS011;28042;43.986;22.860;2023-03-02T00:22:38;82.70;;;41.47;;
42384;SDS011;28042;43.986;22.860;2023-03-02T00:25:06;85.55;;;42.00;;
42384;SDS011;28042;43.986;22.860;2023-03-02T00:27:32;86.10;;;39.35;;
42384;SDS011;28042;43.986;22.860;2023-03-02T00:29:58;80.85;;;39.25;;
42384;SDS011;28042;43.986;22.860;2023-03-02T00:32:24;78.47;;;39.45;;
42384;SDS011;28042;43.986;22.860;2023-03-02T00:34:49;72.10;;;40.40;;
42384;SDS011;28042;43.986;22.860;2023-03-02T00:37:15;77.63;;;39.63;;
42384;SDS011;28042;43.986;22.860;2023-03-02T00:39:41;70.38;;;38.65;;
42384;SDS011;28042;43.986;22.860;2023-03-02T00:42:06;73.88;;;38.78;;
42384;SDS011;28042;43.986;22.860;2023-03-02T00:44:32;80.25;;;41.33;;
42384;SDS011;28042;43.986;22.860;2023-03-02T00:46:57;74.07;;;39.70;;
42384;SDS011;28042;43.986;22.860;2023-03-02T00:49:23;76.75;;;39.28;;
42384;SDS011;28042;43.986;22.860;2023-03-02T00:51:48;80.90;;;42.53;;
42384;SDS011;28042;43.986;22.860;2023-03-02T00:54:14;82.78;;;41.55;;
42384;SDS011;28042;43.986;22.860;2023-03-02T00:56:39;83.03;;;42.50;;
42384;SDS011;28042;43.986;22.860;2023-03-02T00:59:05;81.18;;;40.47;;
42384;SDS011;28042;43.986;22.860;2023-03-02T01:01:35;78.97;;;40.63;;
42384;SDS011;28042;43.986;22.860;2023-03-02T01:04:01;86.13;;;43.33;;
42384;SDS011;28042;43.986;22.860;2023-03-02T01:06:27;87.13;;;44.38;;
42384;SDS011;28042;43.986;22.860;2023-03-02T01:08:53;87.68;;;43.88;;
42384;SDS011;28042;43.986;22.860;2023-03-02T01:11:20;90.60;;;44.60;;
42384;SDS011;28042;43.986;22.860;2023-03-02T01:13:47;80.93;;;41.88;;
42384;SDS011;28042;43.986;22.860;2023-03-02T01:16:13;86.43;;;43.47;;
42384;SDS011;28042;43.986;22.860;2023-03-02T01:18:39;78.00;;;42.05;;
42384;SDS011;28042;43.986;22.860;2023-03-02T01:21:06;82.28;;;41.33;;
42384;SDS011;28042;43.986;22.860;2023-03-02T01:23:34;85.85;;;41.40;;
42384;SDS011;28042;43.986;22.860;2023-03-02T01:26:00;91.10;;;43.30;;
42384;SDS011;28042;43.986;22.860;2023-03-02T01:28:26;81.40;;;42.65;;
42384;SDS011;28042;43.986;22.860;2023-03-02T01:30:52;88.60;;;42.15;;
42384;SDS011;28042;43.986;22.860;2023-03-02T01:33:18;84.18;;;43.10;;
42384;SDS011;28042;43.986;22.860;2023-03-02T01:35:44;81.00;;;42.88;;
42384;SDS011;28042;43.986;22.860;2023-03-02T01:38:10;77.40;;;40.60;;
42384;SDS011;28042;43.986;22.860;2023-03-02T01:40:36;76.38;;;39.70;;
42384;SDS011;28042;43.986;22.860;2023-03-02T01:43:02;77.18;;;41.28;;
42384;SDS011;28042;43.986;22.860;2023-03-02T01:48:10;80.38;;;40.17;;
42384;SDS011;28042;43.986;22.860;2023-03-02T01:50:36;81.60;;;41.95;;
42384;SDS011;28042;43.986;22.860;2023-03-02T01:53:02;72.28;;;39.42;;
42384;SDS011;28042;43.986;22.860;2023-03-02T01:55:28;82.53;;;40.33;;
42384;SDS011;28042;43.986;22.860;2023-03-02T01:57:57;83.32;;;43.03;;
42384;SDS011;28042;43.986;22.860;2023-03-02T02:00:28;75.63;;;40.50;;
42384;SDS011;28042;43.986;22.860;2023-03-02T02:03:02;74.60;;;40.00;;
42384;SDS011;28042;43.986;22.860;2023-03-02T02:05:33;71.60;;;36.30;;
42384;SDS011;28042;43.986;22.860;2023-03-02T02:08:00;77.85;;;40.67;;
42384;SDS011;28042;43.986;22.860;2023-03-02T02:10:26;76.28;;;39.28;;
42384;SDS011;28042;43.986;22.860;2023-03-02T02:12:52;83.10;;;40.77;;
42384;SDS011;28042;43.986;22.860;2023-03-02T02:15:18;77.78;;;41.50;;
42384;SDS011;28042;43.986;22.860;2023-03-02T02:17:44;77.70;;;41.05;;
42384;SDS011;28042;43.986;22.860;2023-03-02T02:20:12;75.97;;;40.88;;
42384;SDS011;28042;43.986;22.860;2023-03-02T02:28:24;78.95;;;37.47;;
42384;SDS011;28042;43.986;22.860;2023-03-02T02:31:15;80.60;;;40.70;;
42384;SDS011;28042;43.986;22.860;2023-03-02T02:33:51;83.18;;;41.88;;
42384;SDS011;28042;43.986;22.860;2023-03-02T02:36:22;75.93;;;37.50;;
42384;SDS011;28042;43.986;22.860;2023-03-02T02:38:57;85.35;;;42.00;;
42384;SDS011;28042;43.986;22.860;2023-03-02T02:41:26;78.32;;;40.08;;
42384;SDS011;28042;43.986;22.860;2023-03-02T02:43:56;84.43;;;39.95;;
42384;SDS011;28042;43.986;22.860;2023-03-02T02:46:22;84.50;;;41.72;;
42384;SDS011;28042;43.986;22.860;2023-03-02T02:48:48;83.70;;;40.40;;
42384;SDS011;28042;43.986;22.860;2023-03-02T02:51:17;85.13;;;40.65;;
42384;SDS011;28042;43.986;22.860;2023-03-02T02:56:13;80.00;;;39.78;;
42384;SDS011;28042;43.986;22.860;2023-03-02T02:58:43;80.50;;;40.22;;
42384;SDS011;28042;43.986;22.860;2023-03-02T03:01:13;85.22;;;38.80;;
42384;SDS011;28042;43.986;22.860;2023-03-02T03:03:42;77.68;;;41.50;;
42384;SDS011;28042;43.986;22.860;2023-03-02T03:06:16;82.43;;;40.60;;
42384;SDS011;28042;43.986;22.860;2023-03-02T03:11:11;81.40;;;40.92;;
42384;SDS011;28042;43.986;22.860;2023-03-02T03:13:43;78.97;;;39.72;;
42384;SDS011;28042;43.986;22.860;2023-03-02T03:16:12;79.70;;;39.03;;
42384;SDS011;28042;43.986;22.860;2023-03-02T03:18:42;84.85;;;43.53;;
42384;SDS011;28042;43.986;22.860;2023-03-02T03:21:11;91.47;;;41.40;;
42384;SDS011;28042;43.986;22.860;2023-03-02T03:23:36;84.68;;;39.15;;
42384;SDS011;28042;43.986;22.860;2023-03-02T03:26:05;88.72;;;42.28;;
42384;SDS011;28042;43.986;22.860;2023-03-02T03:28:32;85.95;;;41.38;;
42384;SDS011;28042;43.986;22.860;2023-03-02T03:30:58;88.63;;;44.08;;
42384;SDS011;28042;43.986;22.860;2023-03-02T03:33:24;88.40;;;42.03;;
42384;SDS011;28042;43.986;22.860;2023-03-02T03:35:49;83.15;;;41.90;;
42384;SDS011;28042;43.986;22.860;2023-03-02T03:38:15;93.43;;;45.20;;
42384;SDS011;28042;43.986;22.860;2023-03-02T03:40:41;87.90;;;42.70;;
42384;SDS011;28042;43.986;22.860;2023-03-02T03:43:06;91.18;;;44.03;;
42384;SDS011;28042;43.986;22.860;2023-03-02T03:45:32;96.75;;;44.97;;
42384;SDS011;28042;43.986;22.860;2023-03-02T03:47:57;90.55;;;45.33;;
42384;SDS011;28042;43.986;22.860;2023-03-02T03:50:23;87.97;;;45.15;;
42384;SDS011;28042;43.986;22.860;2023-03-02T03:52:48;91.03;;;45.85;;
42384;SDS011;28042;43.986;22.860;2023-03-02T03:55:14;89.57;;;43.40;;
42384;SDS011;28042;43.986;22.860;2023-03-02T03:57:39;97.25;;;46.60;;
42384;SDS011;28042;43.986;22.860;2023-03-02T04:00:07;101.25;;;47.85;;
42384;SDS011;28042;43.986;22.860;2023-03-02T04:02:35;90.43;;;44.15;;
42384;SDS011;28042;43.986;22.860;2023-03-02T04:05:01;91.22;;;43.17;;
42384;SDS011;28042;43.986;22.860;2023-03-02T04:07:31;101.78;;;49.65;;
42384;SDS011;28042;43.986;22.860;2023-03-02T04:09:57;94.78;;;44.60;;
42384;SDS011;28042;43.986;22.860;2023-03-02T04:12:34;99.88;;;46.67;;
42384;SDS011;28042;43.986;22.860;2023-03-02T04:15:02;93.85;;;44.72;;
42384;SDS011;28042;43.986;22.860;2023-03-02T04:17:28;101.45;;;45.78;;
42384;SDS011;28042;43.986;22.860;2023-03-02T04:19:54;89.85;;;43.45;;
42384;SDS011;28042;43.986;22.860;2023-03-02T04:22:20;95.00;;;46.22;;
42384;SDS011;28042;43.986;22.860;2023-03-02T04:24:46;83.38;;;40.50;;
42384;SDS011;28042;43.986;22.860;2023-03-02T04:29:39;80.53;;;38.47;;
42384;SDS011;28042;43.986;22.860;2023-03-02T04:32:05;92.45;;;43.25;;
42384;SDS011;28042;43.986;22.860;2023-03-02T04:34:32;86.45;;;42.80;;
42384;SDS011;28042;43.986;22.860;2023-03-02T04:36:58;92.13;;;41.40;;
42384;SDS011;28042;43.986;22.860;2023-03-02T04:39:24;85.90;;;41.45;;
42384;SDS011;28042;43.986;22.860;2023-03-02T04:41:49;90.90;;;44.45;;
42384;SDS011;28042;43.986;22.860;2023-03-02T04:44:15;102.15;;;46.15;;
42384;SDS011;28042;43.986;22.860;2023-03-02T04:46:43;88.32;;;43.45;;
42384;SDS011;28042;43.986;22.860;2023-03-02T04:49:09;114.00;;;54.50;;
42384;SDS011;28042;43.986;22.860;2023-03-02T04:51:39;85.60;;;42.53;;
42384;SDS011;28042;43.986;22.860;2023-03-02T04:54:09;85.03;;;41.97;;
42384;SDS011;28042;43.986;22.860;2023-03-02T04:56:38;86.35;;;42.88;;
42384;SDS011;28042;43.986;22.860;2023-03-02T04:59:03;86.07;;;40.15;;
42384;SDS011;28042;43.986;22.860;2023-03-02T05:01:29;90.68;;;42.95;;
42384;SDS011;28042;43.986;22.860;2023-03-02T05:03:54;82.00;;;39.17;;
42384;SDS011;28042;43.986;22.860;2023-03-02T05:06:20;68.78;;;38.58;;
42384;SDS011;28042;43.986;22.860;2023-03-02T05:08:48;72.60;;;36.42;;
42384;SDS011;28042;43.986;22.860;2023-03-02T05:11:15;74.82;;;39.95;;
42384;SDS011;28042;43.986;22.860;2023-03-02T05:16:39;67.78;;;36.20;;
42384;SDS011;28042;43.986;22.860;2023-03-02T05:21:33;54.70;;;29.73;;
42384;SDS011;28042;43.986;22.860;2023-03-02T05:23:59;62.13;;;31.50;;
42384;SDS011;28042;43.986;22.860;2023-03-02T05:26:24;49.08;;;30.23;;
42384;SDS011;28042;43.986;22.860;2023-03-02T05:28:50;61.35;;;32.28;;
42384;SDS011;28042;43.986;22.860;2023-03-02T05:34:08;50.15;;;29.27;;
42384;SDS011;28042;43.986;22.860;2023-03-02T05:36:36;44.92;;;28.65;;
42384;SDS011;28042;43.986;22.860;2023-03-02T05:39:02;47.80;;;28.60;;
42384;SDS011;28042;43.986;22.860;2023-03-02T05:41:28;51.58;;;29.17;;
42384;SDS011;28042;43.986;22.860;2023-03-02T05:43:54;51.67;;;29.15;;
42384;SDS011;28042;43.986;22.860;2023-03-02T05:46:19;46.88;;;29.00;;
42384;SDS011;28042;43.986;22.860;2023-03-02T05:48:45;39.00;;;25.23;;
42384;SDS011;28042;43.986;22.860;2023-03-02T05:51:10;41.53;;;25.65;;
42384;SDS011;28042;43.986;22.860;2023-03-02T05:53:36;45.40;;;27.45;;
42384;SDS011;28042;43.986;22.860;2023-03-02T05:56:02;47.78;;;28.23;;
42384;SDS011;28042;43.986;22.860;2023-03-02T05:58:28;44.28;;;26.48;;
42384;SDS011;28042;43.986;22.860;2023-03-02T06:00:53;55.05;;;34.63;;
42384;SDS011;28042;43.986;22.860;2023-03-02T06:03:19;43.88;;;26.92;;
42384;SDS011;28042;43.986;22.860;2023-03-02T06:05:44;47.65;;;27.88;;
42384;SDS011;28042;43.986;22.860;2023-03-02T06:08:15;48.58;;;28.40;;
42384;SDS011;28042;43.986;22.860;2023-03-02T06:10:42;45.88;;;26.95;;
42384;SDS011;28042;43.986;22.860;2023-03-02T06:13:10;45.88;;;26.80;;
42384;SDS011;28042;43.986;22.860;2023-03-02T06:15:36;47.08;;;26.48;;
42384;SDS011;28042;43.986;22.860;2023-03-02T06:18:03;45.80;;;27.20;;
42384;SDS011;28042;43.986;22.860;2023-03-02T06:20:29;47.30;;;28.80;;
42384;SDS011;28042;43.986;22.860;2023-03-02T06:22:54;53.50;;;28.83;;
42384;SDS011;28042;43.986;22.860;2023-03-02T06:25:20;40.55;;;27.23;;
42384;SDS011;28042;43.986;22.860;2023-03-02T06:27:47;43.30;;;26.13;;
42384;SDS011;28042;43.986;22.860;2023-03-02T06:30:16;45.88;;;28.05;;
42384;SDS011;28042;43.986;22.860;2023-03-02T06:32:44;58.83;;;35.45;;
42384;SDS011;28042;43.986;22.860;2023-03-02T06:35:10;47.58;;;29.80;;
42384;SDS011;28042;43.986;22.860;2023-03-02T06:37:36;57.60;;;35.90;;
42384;SDS011;28042;43.986;22.860;2023-03-02T06:40:02;47.92;;;29.75;;
42384;SDS011;28042;43.986;22.860;2023-03-02T06:42:35;58.10;;;37.53;;
42384;SDS011;28042;43.986;22.860;2023-03-02T06:45:02;48.22;;;31.67;;
42384;SDS011;28042;43.986;22.860;2023-03-02T06:47:29;48.50;;;28.30;;
42384;SDS011;28042;43.986;22.860;2023-03-02T06:49:55;49.08;;;28.50;;
42384;SDS011;28042;43.986;22.860;2023-03-02T06:52:20;43.33;;;26.25;;
42384;SDS011;28042;43.986;22.860;2023-03-02T06:54:46;39.05;;;25.95;;
42384;SDS011;28042;43.986;22.860;2023-03-02T06:57:13;42.07;;;26.53;;
42384;SDS011;28042;43.986;22.860;2023-03-02T06:59:38;38.10;;;26.23;;
42384;SDS011;28042;43.986;22.860;2023-03-02T07:02:03;37.22;;;26.08;;
42384;SDS011;28042;43.986;22.860;2023-03-02T07:04:29;38.63;;;26.33;;
42384;SDS011;28042;43.986;22.860;2023-03-02T07:06:55;60.25;;;39.58;;
42384;SDS011;28042;43.986;22.860;2023-03-02T07:09:20;43.63;;;23.75;;
42384;SDS011;28042;43.986;22.860;2023-03-02T07:11:46;40.00;;;26.33;;
42384;SDS011;28042;43.986;22.860;2023-03-02T07:14:11;36.97;;;24.83;;
42384;SDS011;28042;43.986;22.860;2023-03-02T07:16:37;40.65;;;27.30;;
42384;SDS011;28042;43.986;22.860;2023-03-02T07:19:02;39.63;;;25.92;;
42384;SDS011;28042;43.986;22.860;2023-03-02T07:21:28;36.88;;;24.00;;
42384;SDS011;28042;43.986;22.860;2023-03-02T07:23:53;35.15;;;24.63;;
42384;SDS011;28042;43.986;22.860;2023-03-02T07:26:19;38.45;;;25.50;;
42384;SDS011;28042;43.986;22.860;2023-03-02T07:28:44;33.97;;;23.90;;
42384;SDS011;28042;43.986;22.860;2023-03-02T07:31:10;36.30;;;24.45;;
42384;SDS011;28042;43.986;22.860;2023-03-02T07:33:37;36.42;;;22.92;;
42384;SDS011;28042;43.986;22.860;2023-03-02T07:36:03;38.78;;;24.05;;
42384;SDS011;28042;43.986;22.860;2023-03-02T07:38:30;36.78;;;23.02;;
42384;SDS011;28042;43.986;22.860;2023-03-02T07:40:55;37.47;;;25.90;;
42384;SDS011;28042;43.986;22.860;2023-03-02T07:43:21;37.40;;;24.67;;
42384;SDS011;28042;43.986;22.860;2023-03-02T07:45:49;43.05;;;28.20;;
42384;SDS011;28042;43.986;22.860;2023-03-02T07:48:15;39.58;;;25.98;;
42384;SDS011;28042;43.986;22.860;2023-03-02T07:50:40;40.20;;;25.70;;
42384;SDS011;28042;43.986;22.860;2023-03-02T07:53:06;38.95;;;24.13;;
42384;SDS011;28042;43.986;22.860;2023-03-02T07:55:31;44.83;;;26.17;;
42384;SDS011;28042;43.986;22.860;2023-03-02T07:57:57;36.22;;;23.90;;
42384;SDS011;28042;43.986;22.860;2023-03-02T08:00:22;41.58;;;25.30;;
42384;SDS011;28042;43.986;22.860;2023-03-02T08:02:51;33.30;;;22.17;;
42384;SDS011;28042;43.986;22.860;2023-03-02T08:05:16;39.00;;;24.98;;
42384;SDS011;28042;43.986;22.860;2023-03-02T08:07:42;64.35;;;32.70;;
42384;SDS011;28042;43.986;22.860;2023-03-02T08:12:35;38.08;;;25.90;;
42384;SDS011;28042;43.986;22.860;2023-03-02T08:15:02;43.45;;;26.30;;
42384;SDS011;28042;43.986;22.860;2023-03-02T08:17:27;40.65;;;25.65;;
42384;SDS011;28042;43.986;22.860;2023-03-02T08:19:53;41.17;;;27.05;;
42384;SDS011;28042;43.986;22.860;2023-03-02T08:22:18;38.42;;;24.65;;
42384;SDS011;28042;43.986;22.860;2023-03-02T08:24:44;42.53;;;26.83;;
42384;SDS011;28042;43.986;22.860;2023-03-02T08:27:11;41.92;;;26.75;;
42384;SDS011;28042;43.986;22.860;2023-03-02T08:29:38;41.00;;;28.60;;
42384;SDS011;28042;43.986;22.860;2023-03-02T08:32:03;40.67;;;27.20;;
42384;SDS011;28042;43.986;22.860;2023-03-02T08:34:29;40.53;;;26.17;;
42384;SDS011;28042;43.986;22.860;2023-03-02T08:36:55;43.13;;;28.38;;
42384;SDS011;28042;43.986;22.860;2023-03-02T08:39:20;42.85;;;27.13;;
42384;SDS011;28042;43.986;22.860;2023-03-02T08:41:51;41.28;;;27.75;;
42384;SDS011;28042;43.986;22.860;2023-03-02T08:44:17;42.58;;;29.00;;
42384;SDS011;28042;43.986;22.860;2023-03-02T08:46:46;47.47;;;31.60;;
42384;SDS011;28042;43.986;22.860;2023-03-02T08:49:13;67.90;;;42.65;;
42384;SDS011;28042;43.986;22.860;2023-03-02T08:51:38;59.30;;;38.30;;
42384;SDS011;28042;43.986;22.860;2023-03-02T08:54:04;43.03;;;29.80;;
42384;SDS011;28042;43.986;22.860;2023-03-02T08:56:30;49.45;;;32.20;;
42384;SDS011;28042;43.986;22.860;2023-03-02T08:58:59;49.03;;;31.75;;
42384;SDS011;28042;43.986;22.860;2023-03-02T09:01:27;55.33;;;34.75;;
42384;SDS011;28042;43.986;22.860;2023-03-02T09:03:55;62.15;;;39.25;;
42384;SDS011;28042;43.986;22.860;2023-03-02T09:06:23;39.30;;;29.05;;
42384;SDS011;28042;43.986;22.860;2023-03-02T09:08:48;50.70;;;33.55;;
42384;SDS011;28042;43.986;22.860;2023-03-02T09:11:14;55.95;;;34.85;;
42384;SDS011;28042;43.986;22.860;2023-03-02T09:13:40;55.20;;;32.10;;
42384;SDS011;28042;43.986;22.860;2023-03-02T09:16:06;61.50;;;38.10;;
42384;SDS011;28042;43.986;22.860;2023-03-02T09:18:32;42.75;;;27.20;;
42384;SDS011;28042;43.986;22.860;2023-03-02T09:20:58;45.65;;;29.67;;
42384;SDS011;28042;43.986;22.860;2023-03-02T09:23:24;57.10;;;36.67;;
42384;SDS011;28042;43.986;22.860;2023-03-02T09:25:51;59.33;;;38.95;;
42384;SDS011;28042;43.986;22.860;2023-03-02T09:28:16;47.00;;;30.60;;
42384;SDS011;28042;43.986;22.860;2023-03-02T09:30:46;46.90;;;31.25;;
42384;SDS011;28042;43.986;22.860;2023-03-02T09:33:13;53.05;;;32.67;;
42384;SDS011;28042;43.986;22.860;2023-03-02T09:35:56;48.85;;;32.45;;
42384;SDS011;28042;43.986;22.860;2023-03-02T09:38:22;58.88;;;34.47;;
42384;SDS011;28042;43.986;22.860;2023-03-02T09:40:52;49.97;;;34.38;;
42384;SDS011;28042;43.986;22.860;2023-03-02T09:43:42;48.33;;;33.05;;
42384;SDS011;28042;43.986;22.860;2023-03-02T09:46:23;51.72;;;35.08;;
42384;SDS011;28042;43.986;22.860;2023-03-02T09:54:20;52.92;;;32.13;;
42384;SDS011;28042;43.986;22.860;2023-03-02T09:56:49;51.97;;;32.65;;
42384;SDS011;28042;43.986;22.860;2023-03-02T10:01:46;51.78;;;34.47;;
42384;SDS011;28042;43.986;22.860;2023-03-02T10:04:50;42.53;;;31.10;;
42384;SDS011;28042;43.986;22.860;2023-03-02T10:07:14;48.28;;;31.90;;
42384;SDS011;28042;43.986;22.860;2023-03-02T10:09:43;48.45;;;33.67;;
42384;SDS011;28042;43.986;22.860;2023-03-02T10:15:09;42.85;;;30.13;;
42384;SDS011;28042;43.986;22.860;2023-03-02T10:20:33;39.05;;;27.40;;
42384;SDS011;28042;43.986;22.860;2023-03-02T10:26:04;47.40;;;28.23;;
42384;SDS011;28042;43.986;22.860;2023-03-02T10:28:34;35.67;;;23.77;;
42384;SDS011;28042;43.986;22.860;2023-03-02T10:31:13;32.95;;;22.08;;
42384;SDS011;28042;43.986;22.860;2023-03-02T10:33:47;33.35;;;21.58;;
42384;SDS011;28042;43.986;22.860;2023-03-02T10:36:36;47.13;;;28.92;;
42384;SDS011;28042;43.986;22.860;2023-03-02T10:39:05;51.67;;;28.95;;
42384;SDS011;28042;43.986;22.860;2023-03-02T10:41:37;39.15;;;23.58;;
42384;SDS011;28042;43.986;22.860;2023-03-02T10:44:13;38.28;;;25.92;;
42384;SDS011;28042;43.986;22.860;2023-03-02T10:46:56;29.50;;;18.58;;
42384;SDS011;28042;43.986;22.860;2023-03-02T10:55:02;26.52;;;18.55;;
42384;SDS011;28042;43.986;22.860;2023-03-02T10:57:37;32.55;;;21.33;;
42384;SDS011;28042;43.986;22.860;2023-03-02T11:00:12;33.65;;;20.85;;
42384;SDS011;28042;43.986;22.860;2023-03-02T11:02:53;37.90;;;23.80;;
42384;SDS011;28042;43.986;22.860;2023-03-02T11:05:22;33.17;;;20.13;;
42384;SDS011;28042;43.986;22.860;2023-03-02T11:07:51;32.17;;;20.83;;
42384;SDS011;28042;43.986;22.860;2023-03-02T11:10:22;36.40;;;22.88;;
42384;SDS011;28042;43.986;22.860;2023-03-02T11:12:54;28.13;;;17.77;;
42384;SDS011;28042;43.986;22.860;2023-03-02T11:20:42;46.45;;;27.60;;
42384;SDS011;28042;43.986;22.860;2023-03-02T11:25:54;36.63;;;23.08;;
42384;SDS011;28042;43.986;22.860;2023-03-02T11:31:32;37.97;;;24.17;;
42384;SDS011;28042;43.986;22.860;2023-03-02T11:44:46;32.75;;;21.40;;
42384;SDS011;28042;43.986;22.860;2023-03-02T11:47:12;26.45;;;18.95;;
42384;SDS011;28042;43.986;22.860;2023-03-02T11:49:45;66.35;;;31.13;;
42384;SDS011;28042;43.986;22.860;2023-03-02T11:52:20;65.05;;;31.88;;
42384;SDS011;28042;43.986;22.860;2023-03-02T11:57:28;55.22;;;30.63;;
42384;SDS011;28042;43.986;22.860;2023-03-02T11:59:58;51.78;;;29.88;;
42384;SDS011;28042;43.986;22.860;2023-03-02T12:02:25;32.15;;;19.67;;
42384;SDS011;28042;43.986;22.860;2023-03-02T12:05:02;31.90;;;21.67;;
42384;SDS011;28042;43.986;22.860;2023-03-02T12:07:30;42.97;;;24.38;;
42384;SDS011;28042;43.986;22.860;2023-03-02T12:10:04;66.07;;;30.90;;
42384;SDS011;28042;43.986;22.860;2023-03-02T12:12:57;93.07;;;43.30;;
42384;SDS011;28042;43.986;22.860;2023-03-02T12:15:41;31.40;;;20.63;;
42384;SDS011;28042;43.986;22.860;2023-03-02T12:36:48;36.70;;;22.23;;
42384;SDS011;28042;43.986;22.860;2023-03-02T12:44:52;47.30;;;25.58;;
42384;SDS011;28042;43.986;22.860;2023-03-02T12:47:41;30.60;;;18.88;;
42384;SDS011;28042;43.986;22.860;2023-03-02T12:50:17;38.80;;;23.77;;
42384;SDS011;28042;43.986;22.860;2023-03-02T12:52:55;41.85;;;25.33;;
42384;SDS011;28042;43.986;22.860;2023-03-02T12:55:28;49.05;;;28.00;;
42384;SDS011;28042;43.986;22.860;2023-03-02T12:57:55;40.13;;;25.10;;
42384;SDS011;28042;43.986;22.860;2023-03-02T13:00:24;50.03;;;29.88;;
42384;SDS011;28042;43.986;22.860;2023-03-02T13:02:53;49.70;;;30.38;;
42384;SDS011;28042;43.986;22.860;2023-03-02T13:05:24;36.83;;;24.75;;
42384;SDS011;28042;43.986;22.860;2023-03-02T13:08:02;37.45;;;24.45;;
42384;SDS011;28042;43.986;22.860;2023-03-02T13:10:38;37.83;;;23.02;;
42384;SDS011;28042;43.986;22.860;2023-03-02T13:13:14;39.30;;;24.55;;
42384;SDS011;28042;43.986;22.860;2023-03-02T13:15:58;34.30;;;22.33;;
42384;SDS011;28042;43.986;22.860;2023-03-02T13:18:29;37.45;;;23.63;;
42384;SDS011;28042;43.986;22.860;2023-03-02T13:21:00;40.17;;;24.92;;
42384;SDS011;28042;43.986;22.860;2023-03-02T13:23:28;64.10;;;33.20;;
42384;SDS011;28042;43.986;22.860;2023-03-02T13:31:20;64.32;;;34.50;;
42384;SDS011;28042;43.986;22.860;2023-03-02T13:36:18;33.03;;;22.90;;
42384;SDS011;28042;43.986;22.860;2023-03-02T13:38:52;57.38;;;30.13;;
42384;SDS011;28042;43.986;22.860;2023-03-02T13:41:23;50.08;;;28.45;;
42384;SDS011;28042;43.986;22.860;2023-03-02T13:43:54;52.30;;;31.73;;
42384;SDS011;28042;43.986;22.860;2023-03-02T13:51:44;46.60;;;26.75;;
42384;SDS011;28042;43.986;22.860;2023-03-02T13:54:30;57.38;;;32.05;;
42384;SDS011;28042;43.986;22.860;2023-03-02T13:59:25;54.40;;;31.33;;
42384;SDS011;28042;43.986;22.860;2023-03-02T14:01:51;47.00;;;28.10;;
42384;SDS011;28042;43.986;22.860;2023-03-02T14:04:17;46.75;;;28.63;;
42384;SDS011;28042;43.986;22.860;2023-03-02T14:06:47;44.70;;;26.52;;
42384;SDS011;28042;43.986;22.860;2023-03-02T14:09:13;47.27;;;28.63;;
42384;SDS011;28042;43.986;22.860;2023-03-02T14:11:40;51.30;;;29.60;;
42384;SDS011;28042;43.986;22.860;2023-03-02T14:14:13;41.30;;;26.58;;
42384;SDS011;28042;43.986;22.860;2023-03-02T14:16:42;48.03;;;29.02;;
42384;SDS011;28042;43.986;22.860;2023-03-02T14:19:09;64.03;;;34.75;;
42384;SDS011;28042;43.986;22.860;2023-03-02T14:21:37;50.50;;;32.00;;
42384;SDS011;28042;43.986;22.860;2023-03-02T14:24:03;54.72;;;36.70;;
42384;SDS011;28042;43.986;22.860;2023-03-02T14:28:54;41.53;;;26.70;;
42384;SDS011;28042;43.986;22.860;2023-03-02T14:31:20;49.65;;;32.72;;
42384;SDS011;28042;43.986;22.860;2023-03-02T14:33:48;44.47;;;29.88;;
42384;SDS011;28042;43.986;22.860;2023-03-02T14:36:14;43.45;;;28.85;;
42384;SDS011;28042;43.986;22.860;2023-03-02T14:38:45;40.45;;;25.98;;
42384;SDS011;28042;43.986;22.860;2023-03-02T14:41:15;52.90;;;34.42;;
42384;SDS011;28042;43.986;22.860;2023-03-02T14:43:46;57.65;;;33.85;;
42384;SDS011;28042;43.986;22.860;2023-03-02T14:46:12;59.72;;;34.63;;
42384;SDS011;28042;43.986;22.860;2023-03-02T14:48:38;76.28;;;46.08;;
42384;SDS011;28042;43.986;22.860;2023-03-02T14:51:04;75.75;;;41.15;;
42384;SDS011;28042;43.986;22.860;2023-03-02T14:53:31;50.47;;;30.73;;
42384;SDS011;28042;43.986;22.860;2023-03-02T14:55:59;62.70;;;37.30;;
42384;SDS011;28042;43.986;22.860;2023-03-02T14:58:32;71.03;;;38.40;;
42384;SDS011;28042;43.986;22.860;2023-03-02T15:00:58;48.25;;;31.92;;
42384;SDS011;28042;43.986;22.860;2023-03-02T15:03:24;55.33;;;35.17;;
42384;SDS011;28042;43.986;22.860;2023-03-02T15:05:51;55.05;;;36.30;;
42384;SDS011;28042;43.986;22.860;2023-03-02T15:08:21;61.70;;;39.33;;
42384;SDS011;28042;43.986;22.860;2023-03-02T15:10:47;62.42;;;40.08;;
42384;SDS011;28042;43.986;22.860;2023-03-02T15:13:14;51.03;;;31.80;;
42384;SDS011;28042;43.986;22.860;2023-03-02T15:15:40;67.70;;;41.83;;
42384;SDS011;28042;43.986;22.860;2023-03-02T15:18:07;62.92;;;39.47;;
42384;SDS011;28042;43.986;22.860;2023-03-02T15:20:33;55.95;;;35.28;;
42384;SDS011;28042;43.986;22.860;2023-03-02T15:22:59;58.85;;;35.58;;
42384;SDS011;28042;43.986;22.860;2023-03-02T15:25:25;53.05;;;34.47;;
42384;SDS011;28042;43.986;22.860;2023-03-02T15:27:51;62.20;;;37.85;;
42384;SDS011;28042;43.986;22.860;2023-03-02T15:32:45;50.35;;;33.83;;
42384;SDS011;28042;43.986;22.860;2023-03-02T15:35:11;60.55;;;37.15;;
42384;SDS011;28042;43.986;22.860;2023-03-02T15:37:37;55.15;;;35.28;;
42384;SDS011;28042;43.986;22.860;2023-03-02T15:40:03;61.15;;;37.90;;
42384;SDS011;28042;43.986;22.860;2023-03-02T15:42:29;55.25;;;36.08;;
42384;SDS011;28042;43.986;22.860;2023-03-02T15:44:55;58.08;;;37.60;;
42384;SDS011;28042;43.986;22.860;2023-03-02T15:47:20;66.97;;;40.67;;
42384;SDS011;28042;43.986;22.860;2023-03-02T15:49:46;71.95;;;42.20;;
42384;SDS011;28042;43.986;22.860;2023-03-02T15:52:11;57.30;;;37.00;;
42384;SDS011;28042;43.986;22.860;2023-03-02T15:54:37;56.50;;;36.75;;
42384;SDS011;28042;43.986;22.860;2023-03-02T15:57:03;51.30;;;34.13;;
42384;SDS011;28042;43.986;22.860;2023-03-02T15:59:29;52.25;;;35.25;;
42384;SDS011;28042;43.986;22.860;2023-03-02T16:01:55;51.87;;;34.13;;
42384;SDS011;28042;43.986;22.860;2023-03-02T16:04:26;50.40;;;33.65;;
42384;SDS011;28042;43.986;22.860;2023-03-02T16:06:56;54.97;;;35.40;;
42384;SDS011;28042;43.986;22.860;2023-03-02T16:09:22;120.55;;;89.53;;
42384;SDS011;28042;43.986;22.860;2023-03-02T16:11:49;62.88;;;43.28;;
42384;SDS011;28042;43.986;22.860;2023-03-02T16:14:15;68.82;;;46.10;;